Time;durP1;ratioP1;P1;durP2;ratioP2;P2;SDS_P1;SDS_P2;PMS_P1;PMS_P2;Temp;Humidity;BMP_temperature;BMP_pressure;BME280_temperature;BME280_humidity;BME280_pressure;Samples;Min_cycle;Max_cycle;Signal;HPM_P1;HPM_P2
2023/04/24 00:01:02;;;;;;;2.47;2.20;;;11.10;1.00;;;;;;4990734;28;20201;-87
2023/04/24 00:03:28;;;;;;;4.50;3.20;;;11.10;1.00;;;;;;4980539;28;21038;-87
2023/04/24 00:05:54;;;;;;;3.77;2.90;;;11.00;1.00;;;;;;4993206;28;20444;-87
2023/04/24 00:08:20;;;;;;;3.00;2.70;;;11.00;1.00;;;;;;4987973;28;20434;-87
2023/04/24 00:10:46;;;;;;;4.70;3.03;;;11.00;1.00;;;;;;4985229;28;20438;-87
2023/04/24 00:13:14;;;;;;;4.50;2.63;;;10.90;1.00;;;;;;5005455;28;20210;-88
2023/04/24 00:15:43;;;;;;;3.13;2.80;;;10.90;1.00;;;;;;4990284;28;20286;-87
2023/04/24 00:18:08;;;;;;;5.37;2.60;;;10.90;1.00;;;;;;4989931;28;20477;-88
2023/04/24 00:20:40;;;;;;;3.60;3.00;;;10.90;1.00;;;;;;4990983;28;20476;-88
2023/04/24 00:23:05;;;;;;;3.30;2.70;;;10.90;1.00;;;;;;4986366;28;20302;-88
2023/04/24 00:25:31;;;;;;;5.87;2.60;;;10.90;1.00;;;;;;4993593;28;20529;-88
2023/04/24 00:27:57;;;;;;;4.60;3.10;;;11.00;1.00;;;;;;5012938;28;20652;-88
2023/04/24 00:30:22;;;;;;;5.13;2.90;;;11.00;1.00;;;;;;5005174;28;20620;-87
2023/04/24 00:32:48;;;;;;;5.27;3.37;;;11.00;99.90;;;;;;4991373;28;20183;-88
2023/04/24 00:35:14;;;;;;;5.70;3.00;;;10.90;99.90;;;;;;4992300;28;20654;-88
2023/04/24 00:37:40;;;;;;;6.13;3.90;;;10.90;99.90;;;;;;5009227;28;20213;-88
2023/04/24 00:40:06;;;;;;;5.53;4.43;;;10.90;99.90;;;;;;4996766;28;20915;-88
2023/04/24 00:42:41;;;;;;;5.33;3.13;;;10.80;99.90;;;;;;4994138;28;20182;-87
2023/04/24 00:45:07;;;;;;;7.60;3.97;;;10.80;99.90;;;;;;5002696;28;20428;-88
2023/04/24 00:47:33;;;;;;;6.90;4.93;;;10.80;99.90;;;;;;4989230;28;20784;-87
2023/04/24 00:50:02;;;;;;;5.77;5.10;;;10.80;99.90;;;;;;5012988;28;20440;-88
2023/04/24 00:52:28;;;;;;;6.33;4.43;;;10.80;99.90;;;;;;5008515;28;20433;-87
2023/04/24 00:54:53;;;;;;;7.93;5.37;;;10.70;99.90;;;;;;5006203;28;20955;-87
2023/04/24 00:57:19;;;;;;;7.17;5.70;;;10.70;99.90;;;;;;4989580;28;20591;-87
2023/04/24 00:59:46;;;;;;;8.33;5.30;;;10.70;99.90;;;;;;4996925;28;20187;-88
2023/04/24 01:02:11;;;;;;;6.13;5.20;;;10.70;99.90;;;;;;4993343;28;20663;-88
2023/04/24 01:04:37;;;;;;;8.97;6.50;;;10.70;99.90;;;;;;5005824;28;20572;-87
2023/04/24 01:07:09;;;;;;;9.03;6.33;;;10.60;1.00;;;;;;5005558;28;20251;-88
2023/04/24 01:09:39;;;;;;;8.30;5.70;;;10.60;1.00;;;;;;4985113;28;20862;-87
2023/04/24 01:12:05;;;;;;;11.93;6.30;;;10.60;1.00;;;;;;5011980;28;20460;-88
2023/04/24 01:14:31;;;;;;;9.10;6.43;;;10.60;1.00;;;;;;5011405;28;20493;-88
2023/04/24 01:16:57;;;;;;;10.60;7.50;;;10.60;1.00;;;;;;4990878;28;20982;-88
2023/04/24 01:19:23;;;;;;;15.77;7.83;;;10.60;1.00;;;;;;4984755;28;20187;-87
2023/04/24 01:21:53;;;;;;;11.67;8.53;;;10.60;1.00;;;;;;5008353;28;20433;-88
2023/04/24 01:24:19;;;;;;;10.63;7.83;;;10.60;1.00;;;;;;5008445;28;20786;-87
2023/04/24 01:26:45;;;;;;;12.83;8.60;;;10.60;1.00;;;;;;4991129;28;20442;-87
2023/04/24 01:29:12;;;;;;;13.20;9.10;;;10.60;1.00;;;;;;4988575;28;20492;-87
2023/04/24 01:31:39;;;;;;;10.90;8.30;;;10.60;1.00;;;;;;4995895;28;20434;-87
2023/04/24 01:34:05;;;;;;;12.57;8.10;;;10.60;1.00;;;;;;5007246;28;20470;-88
2023/04/24 01:36:52;;;;;;;14.83;8.73;;;10.60;1.00;;;;;;5007940;28;20806;-87
2023/04/24 01:39:20;;;;;;;14.70;8.30;;;10.60;1.00;;;;;;5008323;28;20525;-87
2023/04/24 01:41:49;;;;;;;12.67;8.63;;;10.60;1.00;;;;;;5000330;28;20477;-89
2023/04/24 01:44:15;;;;;;;12.43;8.70;;;10.50;1.00;;;;;;4999382;28;20998;-87
2023/04/24 01:46:41;;;;;;;16.80;10.27;;;10.50;1.00;;;;;;4990856;28;20463;-88
2023/04/24 01:49:07;;;;;;;14.17;10.03;;;10.50;30.70;;;;;;5010569;28;20545;-87
2023/04/24 01:51:32;;;;;;;20.50;10.90;;;10.50;91.50;;;;;;4980210;28;20180;-87
2023/04/24 01:53:58;;;;;;;13.67;10.53;;;10.50;99.90;;;;;;4988605;28;20238;-87
2023/04/24 01:56:25;;;;;;;18.30;11.23;;;10.50;99.90;;;;;;4995114;28;20191;-87
2023/04/24 01:58:53;;;;;;;17.00;11.67;;;10.50;99.90;;;;;;4992034;28;20699;-88
2023/04/24 02:01:20;;;;;;;13.60;10.40;;;10.50;99.90;;;;;;4992180;28;20446;-88
2023/04/24 02:03:46;;;;;;;20.90;11.30;;;10.50;99.90;;;;;;4987509;28;20477;-88
2023/04/24 02:06:12;;;;;;;15.73;11.60;;;10.50;99.90;;;;;;5009280;28;21073;-88
2023/04/24 02:08:37;;;;;;;14.37;11.07;;;10.50;99.90;;;;;;5009539;28;20433;-88
2023/04/24 02:11:03;;;;;;;14.80;11.67;;;10.50;99.90;;;;;;5012032;28;20198;-88
2023/04/24 02:13:29;;;;;;;20.87;10.90;;;10.50;99.90;;;;;;5004981;28;20214;-88
2023/04/24 02:15:54;;;;;;;17.50;11.43;;;10.50;99.90;;;;;;4985792;28;20214;-87
2023/04/24 02:18:22;;;;;;;17.03;10.87;;;10.50;99.90;;;;;;4996384;28;20226;-88
2023/04/24 02:20:48;;;;;;;17.47;10.80;;;10.50;99.90;;;;;;4994545;28;20229;-87
2023/04/24 02:23:14;;;;;;;14.53;10.80;;;10.50;99.90;;;;;;5008129;28;20890;-87
2023/04/24 02:25:40;;;;;;;14.33;10.67;;;10.60;99.90;;;;;;5008557;28;20191;-88
2023/04/24 02:28:05;;;;;;;14.43;10.60;;;10.60;99.90;;;;;;4994993;28;20438;-88
2023/04/24 02:30:31;;;;;;;22.40;11.60;;;10.60;99.90;;;;;;4995404;28;20623;-87
2023/04/24 02:32:56;;;;;;;11.90;9.80;;;10.60;99.90;;;;;;4993175;28;20187;-88
2023/04/24 02:35:22;;;;;;;13.63;10.10;;;10.60;99.90;;;;;;5009539;28;20179;-88
2023/04/24 02:37:47;;;;;;;14.07;9.97;;;10.60;99.90;;;;;;4998668;28;20640;-87
2023/04/24 02:40:13;;;;;;;13.00;9.77;;;10.60;99.90;;;;;;5000021;28;20672;-88
2023/04/24 02:42:39;;;;;;;17.40;10.60;;;10.60;99.90;;;;;;4987364;28;20230;-87
2023/04/24 02:45:07;;;;;;;15.23;9.67;;;10.60;99.90;;;;;;5012319;28;20206;-88
2023/04/24 02:47:33;;;;;;;19.23;9.87;;;10.60;99.90;;;;;;4996821;28;20557;-88
2023/04/24 02:49:58;;;;;;;17.50;11.30;;;10.60;99.90;;;;;;5002032;28;20445;-88
2023/04/24 02:52:24;;;;;;;16.00;10.47;;;10.60;99.90;;;;;;5008224;28;20629;-88
2023/04/24 02:54:49;;;;;;;17.20;9.37;;;10.60;99.90;;;;;;5012890;28;20293;-88
2023/04/24 02:57:18;;;;;;;13.60;9.87;;;10.60;99.90;;;;;;4993059;28;20269;-87
2023/04/24 02:59:43;;;;;;;13.77;9.83;;;10.60;99.90;;;;;;5006589;28;20201;-88
2023/04/24 03:02:09;;;;;;;18.53;10.23;;;10.60;99.90;;;;;;5003307;28;20441;-87
2023/04/24 03:04:34;;;;;;;18.80;10.80;;;10.60;99.90;;;;;;4988634;28;20226;-88
2023/04/24 03:07:00;;;;;;;11.93;9.77;;;10.60;99.90;;;;;;4994105;28;20221;-88
2023/04/24 03:09:28;;;;;;;15.10;9.67;;;10.60;99.90;;;;;;5004447;28;20179;-88
2023/04/24 03:11:55;;;;;;;16.63;10.20;;;10.60;99.90;;;;;;5012441;28;20504;-88
2023/04/24 03:14:20;;;;;;;20.77;10.37;;;10.60;99.90;;;;;;4979502;28;20493;-86
2023/04/24 03:16:46;;;;;;;17.23;11.00;;;10.50;99.90;;;;;;5003230;28;21034;-87
2023/04/24 03:19:17;;;;;;;17.07;10.87;;;10.60;99.90;;;;;;4993733;28;20726;-88
2023/04/24 03:21:43;;;;;;;15.93;10.00;;;10.50;99.90;;;;;;4979691;28;20252;-88
2023/04/24 03:24:09;;;;;;;13.17;10.43;;;10.60;99.90;;;;;;5005848;28;21037;-88
2023/04/24 03:26:35;;;;;;;13.90;11.33;;;10.60;99.90;;;;;;4991591;28;20475;-88
2023/04/24 03:29:01;;;;;;;21.03;11.03;;;10.50;99.90;;;;;;4993082;28;20202;-88
2023/04/24 03:31:26;;;;;;;15.10;10.80;;;10.50;99.90;;;;;;4997775;28;20434;-88
2023/04/24 03:33:52;;;;;;;14.83;10.80;;;10.50;99.90;;;;;;5004584;28;20476;-87
2023/04/24 03:36:19;;;;;;;12.70;10.10;;;10.50;99.90;;;;;;4985636;28;20187;-88
2023/04/24 03:38:44;;;;;;;16.13;10.80;;;10.50;99.90;;;;;;4991735;28;20196;-88
2023/04/24 03:41:10;;;;;;;13.30;9.63;;;10.50;99.90;;;;;;5006159;28;20442;-88
2023/04/24 03:43:36;;;;;;;14.40;12.40;;;10.50;99.90;;;;;;4984198;28;20211;-88
2023/04/24 03:46:02;;;;;;;13.57;10.50;;;10.50;99.90;;;;;;4987271;28;20183;-88
2023/04/24 03:48:27;;;;;;;14.17;10.90;;;10.50;99.90;;;;;;4988707;28;20179;-88
2023/04/24 03:50:53;;;;;;;18.50;9.53;;;10.40;1.00;;;;;;4991191;28;20441;-87
2023/04/24 03:53:21;;;;;;;10.87;9.77;;;10.40;1.00;;;;;;5006007;28;20207;-88
2023/04/24 03:55:47;;;;;;;16.57;10.10;;;10.40;1.00;;;;;;4983938;28;20199;-87
2023/04/24 03:58:16;;;;;;;17.97;9.50;;;10.40;1.00;;;;;;4989962;28;20430;-88
2023/04/24 04:00:41;;;;;;;13.37;10.10;;;10.30;1.00;;;;;;5001599;28;20198;-88
2023/04/24 04:03:07;;;;;;;14.17;8.77;;;10.40;1.00;;;;;;4985619;28;20470;-88
2023/04/24 04:05:32;;;;;;;13.77;9.53;;;10.40;1.00;;;;;;4979481;28;20221;-87
2023/04/24 04:07:58;;;;;;;11.40;10.00;;;10.30;1.00;;;;;;5001389;28;20657;-87
2023/04/24 04:10:26;;;;;;;14.10;10.67;;;10.30;1.00;;;;;;5000805;28;20194;-87
2023/04/24 04:12:51;;;;;;;14.83;9.70;;;10.30;31.20;;;;;;4990976;28;20281;-88
2023/04/24 04:15:17;;;;;;;10.87;8.97;;;10.30;99.90;;;;;;5009137;28;20583;-88
2023/04/24 04:17:43;;;;;;;13.43;8.70;;;10.30;99.90;;;;;;4996408;28;20260;-87
2023/04/24 04:20:09;;;;;;;13.77;9.97;;;10.20;99.90;;;;;;5002643;28;20191;-88
2023/04/24 04:22:36;;;;;;;10.47;8.20;;;10.20;99.90;;;;;;4996078;28;20552;-87
2023/04/24 04:25:05;;;;;;;12.85;9.82;;;10.20;99.90;;;;;;4981035;28;21579;-89
2023/04/24 04:27:31;;;;;;;10.88;8.80;;;10.20;99.90;;;;;;4997430;28;20176;-87
2023/04/24 04:30:01;;;;;;;10.63;8.77;;;10.20;99.90;;;;;;5000315;28;20175;-86
2023/04/24 04:32:29;;;;;;;11.70;8.32;;;10.20;99.90;;;;;;4983535;28;20422;-87
2023/04/24 04:34:55;;;;;;;11.33;9.23;;;10.20;99.90;;;;;;4980011;28;20214;-87
2023/04/24 04:37:21;;;;;;;16.73;10.33;;;10.20;99.90;;;;;;4995302;28;20443;-87
2023/04/24 04:39:46;;;;;;;11.13;9.03;;;10.30;99.90;;;;;;5004531;28;20187;-87
2023/04/24 04:42:13;;;;;;;14.73;8.73;;;10.20;99.90;;;;;;5007148;28;20201;-87
2023/04/24 04:44:55;;;;;;;14.40;8.50;;;10.20;99.90;;;;;;4974603;28;20760;-88
2023/04/24 04:47:24;;;;;;;10.82;7.20;;;10.20;32.20;;;;;;4976736;28;20478;-87
2023/04/24 04:49:51;;;;;;;10.00;7.90;;;10.20;96.60;;;;;;4998986;28;20555;-88
2023/04/24 04:52:18;;;;;;;12.20;8.67;;;10.10;99.90;;;;;;4982392;28;21380;-87
2023/04/24 04:54:43;;;;;;;10.27;8.03;;;10.20;99.90;;;;;;4984396;28;20998;-88
2023/04/24 04:57:10;;;;;;;11.73;8.93;;;10.20;99.90;;;;;;4980165;28;20445;-88
2023/04/24 04:59:35;;;;;;;16.50;10.17;;;10.20;1.00;;;;;;4991799;28;20183;-87
2023/04/24 05:02:01;;;;;;;12.10;8.70;;;10.10;1.00;;;;;;5001596;28;20483;-87
2023/04/24 05:04:32;;;;;;;15.87;9.90;;;10.10;99.90;;;;;;4979005;28;20256;-87
2023/04/24 05:06:57;;;;;;;10.70;8.63;;;10.10;99.90;;;;;;4989920;28;20184;-87
2023/04/24 05:09:23;;;;;;;10.20;7.73;;;10.10;1.00;;;;;;4994255;28;20198;-88
2023/04/24 05:11:57;;;;;;;15.03;8.73;;;10.00;1.00;;;;;;4992350;28;20565;-88
2023/04/24 05:14:23;;;;;;;10.10;7.97;;;10.10;1.00;;;;;;5027419;28;20202;-89
2023/04/24 05:16:48;;;;;;;11.63;7.00;;;10.00;1.00;;;;;;5006847;28;20453;-87
2023/04/24 05:19:14;;;;;;;11.03;7.50;;;10.10;1.00;;;;;;4994175;28;20194;-88
2023/04/24 05:21:40;;;;;;;10.87;6.73;;;10.10;99.90;;;;;;4986890;28;20218;-87
2023/04/24 05:24:06;;;;;;;11.80;8.07;;;10.20;99.90;;;;;;5004337;28;20301;-88
2023/04/24 05:26:32;;;;;;;9.20;6.50;;;10.20;99.90;;;;;;4987987;28;20452;-89
2023/04/24 05:28:58;;;;;;;10.33;7.33;;;10.20;26.60;;;;;;4986586;28;20679;-87
2023/04/24 05:31:33;;;;;;;8.90;6.50;;;10.20;1.00;;;;;;4981495;28;20598;-87
2023/04/24 05:33:58;;;;;;;8.70;6.90;;;10.20;1.00;;;;;;4983665;28;20584;-87
2023/04/24 05:36:27;;;;;;;7.43;6.20;;;10.30;35.90;;;;;;5004436;28;20442;-87
2023/04/24 05:38:58;;;;;;;7.23;5.90;;;10.40;1.00;;;;;;5000346;28;20607;-87
2023/04/24 05:41:38;;;;;;;6.00;5.20;;;10.50;1.00;;;;;;4981186;28;20438;-86
2023/04/24 05:44:07;;;;;;;7.20;6.10;;;10.50;99.90;;;;;;4981265;28;20540;-86
2023/04/24 05:46:46;;;;;;;8.50;6.90;;;10.50;99.90;;;;;;4979690;28;20518;-86
2023/04/24 05:49:20;;;;;;;9.33;6.70;;;10.50;1.00;;;;;;4988126;28;20492;-86
2023/04/24 05:51:46;;;;;;;8.50;6.87;;;10.50;99.90;;;;;;4989591;28;20507;-86
2023/04/24 05:54:12;;;;;;;9.87;7.30;;;10.40;13.60;;;;;;4995845;28;20466;-87
2023/04/24 05:56:43;;;;;;;15.70;8.33;;;10.30;48.20;;;;;;4992105;28;20187;-87
2023/04/24 05:59:09;;;;;;;15.93;9.57;;;10.20;99.90;;;;;;4984312;28;20248;-85
2023/04/24 06:01:46;;;;;;;11.70;8.20;;;10.10;1.00;;;;;;4978953;28;20527;-87
2023/04/24 06:04:52;;;;;;;13.15;8.80;;;9.90;99.90;;;;;;4995961;28;20317;-87
2023/04/24 06:07:18;;;;;;;10.80;7.47;;;9.90;1.00;;;;;;4985537;28;20229;-87
2023/04/24 06:09:44;;;;;;;13.90;10.50;;;9.80;1.00;;;;;;5003201;28;20466;-87
2023/04/24 06:12:09;;;;;;;11.23;8.60;;;9.80;1.00;;;;;;5004646;28;20707;-87
2023/04/24 06:14:37;;;;;;;10.57;8.23;;;9.80;53.50;;;;;;4983693;28;20454;-87
2023/04/24 06:17:03;;;;;;;10.83;7.37;;;9.80;97.70;;;;;;4982162;28;20278;-88
2023/04/24 06:19:28;;;;;;;9.03;7.47;;;9.80;99.90;;;;;;5008655;28;21018;-87
2023/04/24 06:21:54;;;;;;;9.87;6.90;;;9.80;99.90;;;;;;5003252;28;20274;-87
2023/04/24 06:24:20;;;;;;;9.50;7.40;;;9.80;99.90;;;;;;5003412;28;20210;-86
2023/04/24 06:26:45;;;;;;;8.73;6.97;;;9.80;99.90;;;;;;5012864;28;20186;-87
2023/04/24 06:29:11;;;;;;;8.97;6.70;;;9.90;99.90;;;;;;4993026;28;20190;-88
2023/04/24 06:31:36;;;;;;;9.87;6.70;;;10.00;99.90;;;;;;5003699;28;20175;-87
2023/04/24 06:34:03;;;;;;;8.43;6.20;;;10.00;99.90;;;;;;4995836;28;20203;-87
2023/04/24 06:36:29;;;;;;;9.00;5.90;;;10.00;99.90;;;;;;4990573;28;20183;-87
2023/04/24 06:38:55;;;;;;;7.53;4.77;;;10.10;54.40;;;;;;5001772;28;20445;-89
2023/04/24 06:41:20;;;;;;;6.17;4.70;;;10.00;27.30;;;;;;5005880;28;20496;-87
2023/04/24 06:43:46;;;;;;;7.20;4.70;;;9.90;16.50;;;;;;5001711;28;20637;-89
2023/04/24 06:46:11;;;;;;;8.03;4.33;;;9.90;99.90;;;;;;4979444;28;20211;-86
2023/04/24 06:48:37;;;;;;;3.70;3.23;;;9.90;99.90;;;;;;5002017;28;20209;-85
2023/04/24 06:51:03;;;;;;;4.07;3.67;;;9.80;91.20;;;;;;5008950;28;20655;-87
2023/04/24 06:53:28;;;;;;;3.00;2.70;;;9.80;2.60;;;;;;5006830;28;20199;-87
2023/04/24 06:55:54;;;;;;;3.70;2.93;;;9.80;22.80;;;;;;4999722;28;20203;-87
2023/04/24 06:58:20;;;;;;;5.70;3.25;;;9.80;9.20;;;;;;5006105;28;20188;-87
2023/04/24 07:00:46;;;;;;;3.67;2.90;;;9.70;47.60;;;;;;5003360;28;20222;-87
2023/04/24 07:03:11;;;;;;;4.87;3.53;;;9.70;99.90;;;;;;5001768;28;20529;-87
2023/04/24 07:05:38;;;;;;;5.57;4.10;;;9.70;99.90;;;;;;5004710;28;20175;-87
2023/04/24 07:08:03;;;;;;;5.55;3.60;;;9.70;99.90;;;;;;4994877;28;20549;-87
2023/04/24 07:10:30;;;;;;;6.60;3.83;;;9.60;99.90;;;;;;4992565;28;20187;-86
2023/04/24 07:12:56;;;;;;;6.00;3.80;;;9.60;99.90;;;;;;5005261;28;20183;-85
2023/04/24 07:15:23;;;;;;;5.07;4.50;;;9.50;99.90;;;;;;4979639;28;20493;-86
2023/04/24 07:17:50;;;;;;;7.93;5.33;;;9.40;99.90;;;;;;5000655;28;20904;-87
2023/04/24 07:20:15;;;;;;;6.10;5.23;;;9.30;99.90;;;;;;5010482;28;20472;-88
2023/04/24 07:22:41;;;;;;;2.47;2.00;;;9.30;99.90;;;;;;5008319;28;20266;-87
2023/04/24 07:25:08;;;;;;;1.83;1.50;;;9.30;99.90;;;;;;4997670;28;20211;-87
2023/04/24 07:27:34;;;;;;;2.10;0.95;;;9.20;99.90;;;;;;4998523;28;20193;-88
2023/04/24 07:30:00;;;;;;;1.80;1.20;;;9.00;99.90;;;;;;4988773;28;20183;-87
2023/04/24 07:32:26;;;;;;;1.60;1.20;;;8.90;94.90;;;;;;4981014;28;20259;-88
2023/04/24 07:34:51;;;;;;;2.60;1.73;;;8.90;99.90;;;;;;4978891;28;20231;-86
2023/04/24 07:37:17;;;;;;;2.10;1.90;;;8.80;99.90;;;;;;5004504;28;20195;-86
2023/04/24 07:39:43;;;;;;;6.80;3.90;;;8.80;99.90;;;;;;4990557;28;20669;-86
2023/04/24 07:42:08;;;;;;;6.50;3.70;;;8.80;99.90;;;;;;4995193;28;20446;-87
2023/04/24 07:44:35;;;;;;;8.73;6.20;;;8.80;99.90;;;;;;4995903;28;20701;-87
2023/04/24 07:47:01;;;;;;;9.23;6.20;;;8.80;1.00;;;;;;5002332;28;20195;-87
2023/04/24 07:49:27;;;;;;;8.53;6.20;;;8.90;1.00;;;;;;4973286;28;20179;-87
2023/04/24 07:51:53;;;;;;;10.13;5.63;;;8.90;1.00;;;;;;5001360;28;20313;-87
2023/04/24 07:54:18;;;;;;;10.10;5.63;;;8.90;1.00;;;;;;5003909;28;20669;-87
2023/04/24 07:56:44;;;;;;;8.37;5.60;;;9.00;1.00;;;;;;5006394;28;20277;-87
2023/04/24 07:59:10;;;;;;;7.17;5.00;;;9.00;99.90;;;;;;4983281;28;20649;-87
2023/04/24 08:01:36;;;;;;;10.20;5.20;;;9.00;99.90;;;;;;4980420;28;20191;-87
2023/04/24 08:04:02;;;;;;;7.30;5.47;;;9.00;99.90;;;;;;4988898;28;20221;-87
2023/04/24 08:06:30;;;;;;;11.10;5.10;;;9.00;99.90;;;;;;4981799;28;20191;-87
2023/04/24 08:08:56;;;;;;;6.05;5.45;;;9.10;99.90;;;;;;5003923;28;20600;-87
2023/04/24 08:11:22;;;;;;;5.47;4.53;;;9.10;99.90;;;;;;4995628;28;20645;-86
2023/04/24 08:13:48;;;;;;;7.70;4.90;;;9.20;99.90;;;;;;4999427;28;20222;-86
2023/04/24 08:16:14;;;;;;;9.27;4.80;;;9.20;99.90;;;;;;4997160;28;20219;-86
2023/04/24 08:18:40;;;;;;;7.83;4.90;;;9.20;99.90;;;;;;5004699;28;20473;-87
2023/04/24 08:21:05;;;;;;;5.23;4.53;;;9.20;99.90;;;;;;4987353;28;20190;-86
2023/04/24 08:23:31;;;;;;;6.47;4.47;;;9.20;99.90;;;;;;5010729;28;20217;-87
2023/04/24 08:25:57;;;;;;;5.20;4.33;;;9.20;99.90;;;;;;5008720;28;20194;-87
2023/04/24 08:28:23;;;;;;;6.03;5.32;;;9.20;99.90;;;;;;5002994;28;20179;-86
2023/04/24 08:30:54;;;;;;;6.90;6.20;;;9.20;99.90;;;;;;4998211;28;20194;-86
2023/04/24 08:33:22;;;;;;;7.32;6.57;;;9.20;99.90;;;;;;4995515;28;20203;-86
2023/04/24 08:35:48;;;;;;;9.60;5.05;;;9.20;99.90;;;;;;4999186;28;20236;-86
2023/04/24 08:38:13;;;;;;;8.90;5.90;;;9.20;99.90;;;;;;4999239;28;20704;-85
2023/04/24 08:40:39;;;;;;;8.17;6.33;;;9.30;99.90;;;;;;4983071;28;20222;-85
2023/04/24 08:43:05;;;;;;;10.57;6.80;;;9.30;99.90;;;;;;4991774;28;20257;-85
2023/04/24 08:45:32;;;;;;;9.70;7.40;;;9.40;99.90;;;;;;5005900;28;20444;-86
2023/04/24 08:47:59;;;;;;;15.25;7.68;;;9.40;99.90;;;;;;5009269;28;20218;-85
2023/04/24 08:50:25;;;;;;;10.90;7.40;;;9.40;99.90;;;;;;5020458;28;20199;-86
2023/04/24 08:52:53;;;;;;;11.03;8.00;;;9.50;96.50;;;;;;4999085;28;20205;-86
2023/04/24 08:55:20;;;;;;;12.25;8.73;;;9.50;99.90;;;;;;4995128;28;20180;-86
2023/04/24 08:57:50;;;;;;;11.18;8.50;;;9.60;99.90;;;;;;4992028;28;20179;-85
2023/04/24 09:00:16;;;;;;;12.45;8.93;;;9.70;99.90;;;;;;5007635;28;20263;-86
2023/04/24 09:02:46;;;;;;;12.63;8.73;;;9.70;99.90;;;;;;4998372;28;20196;-86
2023/04/24 09:05:13;;;;;;;11.67;8.67;;;9.80;99.90;;;;;;5002869;28;20466;-86
2023/04/24 09:07:41;;;;;;;14.50;9.37;;;10.00;99.90;;;;;;4980359;28;20434;-85
2023/04/24 09:10:07;;;;;;;13.40;8.73;;;10.00;99.90;;;;;;5009721;28;20485;-85
2023/04/24 09:12:34;;;;;;;15.40;9.50;;;10.20;29.00;;;;;;5012309;28;20524;-86
2023/04/24 09:15:01;;;;;;;14.53;9.40;;;10.20;1.00;;;;;;5006174;28;21033;-86
2023/04/24 09:17:28;;;;;;;16.43;10.07;;;10.40;1.00;;;;;;4984665;28;21090;-86
2023/04/24 09:19:55;;;;;;;18.67;9.10;;;10.50;1.00;;;;;;5003627;28;20527;-85
2023/04/24 09:22:20;;;;;;;16.90;8.80;;;10.70;99.90;;;;;;5009725;28;20179;-85
2023/04/24 09:24:47;;;;;;;14.23;8.17;;;10.90;99.90;;;;;;4988539;28;20477;-87
2023/04/24 09:27:14;;;;;;;10.43;8.33;;;11.10;1.00;;;;;;4986138;28;20414;-87
2023/04/24 09:29:56;;;;;;;13.80;7.60;;;11.30;15.40;;;;;;4981955;28;20481;-87
2023/04/24 09:32:24;;;;;;;14.93;7.70;;;11.40;48.90;;;;;;4988024;28;20418;-87
2023/04/24 09:35:04;;;;;;;12.30;7.00;;;11.50;1.00;;;;;;4991612;28;20562;-87
2023/04/24 09:37:30;;;;;;;8.13;7.23;;;11.50;1.00;;;;;;5002472;28;20524;-86
2023/04/24 09:40:14;;;;;;;10.27;7.57;;;11.80;99.90;;;;;;4980664;28;20545;-86
2023/04/24 09:42:44;;;;;;;11.20;5.90;;;12.10;1.00;;;;;;5000592;28;20445;-87
2023/04/24 09:45:11;;;;;;;7.87;5.73;;;12.50;99.90;;;;;;5004323;28;20565;-85
2023/04/24 09:47:41;;;;;;;7.33;5.17;;;12.80;1.00;;;;;;5001981;28;20798;-86
2023/04/24 09:50:14;;;;;;;12.90;5.20;;;13.30;99.90;;;;;;4986159;28;20518;-86
2023/04/24 09:52:47;;;;;;;10.03;5.33;;;13.50;1.00;;;;;;4985298;28;20434;-86
2023/04/24 09:55:21;;;;;;;7.10;4.47;;;13.90;99.90;;;;;;5009062;28;20529;-87
2023/04/24 09:57:51;;;;;;;7.93;4.90;;;14.40;1.00;;;;;;4996105;28;20890;-86
2023/04/24 10:00:32;;;;;;;8.73;4.10;;;14.40;1.00;;;;;;4999991;28;20490;-86
2023/04/24 10:03:05;;;;;;;8.73;4.73;;;14.10;1.00;;;;;;5003101;28;20443;-87
2023/04/24 10:05:33;;;;;;;5.93;4.23;;;13.80;1.00;;;;;;4999828;28;20967;-87
2023/04/24 10:08:04;;;;;;;8.40;4.77;;;13.50;1.00;;;;;;4999317;28;20522;-87
2023/04/24 10:10:36;;;;;;;14.67;4.70;;;13.20;1.00;;;;;;4999891;28;20469;-86
2023/04/24 10:13:03;;;;;;;14.67;5.63;;;13.00;72.20;;;;;;5007635;28;20454;-86
2023/04/24 10:15:28;;;;;;;11.03;5.50;;;13.00;99.90;;;;;;4985550;28;20468;-87
2023/04/24 10:17:54;;;;;;;9.33;4.83;;;13.10;99.90;;;;;;5010232;28;20456;-85
2023/04/24 10:20:24;;;;;;;6.57;4.80;;;13.40;99.90;;;;;;4985374;28;20184;-87
2023/04/24 10:22:53;;;;;;;9.43;4.90;;;13.70;99.90;;;;;;5003878;28;20204;-85
2023/04/24 10:25:25;;;;;;;7.73;4.93;;;13.80;17.80;;;;;;5010827;28;20418;-86
2023/04/24 10:27:51;;;;;;;14.70;6.27;;;13.60;46.60;;;;;;4985999;28;20853;-87
2023/04/24 10:30:19;;;;;;;7.83;5.17;;;13.20;93.90;;;;;;5002402;28;20454;-86
2023/04/24 10:32:45;;;;;;;10.60;6.37;;;13.00;99.90;;;;;;4999517;28;20495;-86
2023/04/24 10:35:15;;;;;;;7.40;4.67;;;13.00;99.90;;;;;;4978644;28;20442;-85
2023/04/24 10:37:45;;;;;;;12.40;5.00;;;12.90;99.90;;;;;;4996746;28;20445;-85
2023/04/24 10:40:15;;;;;;;12.80;5.00;;;12.80;99.90;;;;;;5005986;28;20909;-85
2023/04/24 10:42:44;;;;;;;10.27;4.33;;;13.30;99.90;;;;;;5004811;28;20813;-86
2023/04/24 10:45:21;;;;;;;8.73;4.43;;;14.20;99.90;;;;;;4990022;28;20893;-86
2023/04/24 10:48:02;;;;;;;9.87;3.60;;;15.50;1.00;;;;;;4980581;28;20444;-87
2023/04/24 10:50:30;;;;;;;7.67;3.70;;;17.30;99.90;;;;;;4977366;28;20459;-88
2023/04/24 10:53:06;;;;;;;8.27;4.10;;;18.30;99.90;;;;;;4995402;28;20499;-85
2023/04/24 10:55:50;;;;;;;8.50;3.63;;;18.30;99.90;;;;;;4977355;28;20444;-88
2023/04/24 10:58:16;;;;;;;9.17;3.73;;;18.30;99.90;;;;;;4991670;28;20533;-86
2023/04/24 11:00:44;;;;;;;10.37;3.70;;;18.40;99.90;;;;;;4975698;28;20447;-88
2023/04/24 11:03:50;;;;;;;9.60;4.30;;;17.90;99.90;;;;;;5000782;28;20457;-87
2023/04/24 11:06:15;;;;;;;7.30;4.50;;;17.10;99.90;;;;;;4987437;28;20447;-88
2023/04/24 11:08:45;;;;;;;10.23;4.53;;;16.30;99.90;;;;;;4999989;28;20441;-88
2023/04/24 11:11:17;;;;;;;9.97;4.10;;;15.70;99.90;;;;;;5004527;28;20191;-89
2023/04/24 11:13:55;;;;;;;10.23;4.00;;;15.20;99.90;;;;;;4977424;28;20883;-86
2023/04/24 11:16:35;;;;;;;9.30;4.37;;;15.30;99.90;;;;;;4989111;28;20969;-88
2023/04/24 11:19:05;;;;;;;7.70;4.50;;;15.50;99.90;;;;;;4997562;28;20498;-88
2023/04/24 11:21:41;;;;;;;11.80;4.60;;;15.50;99.90;;;;;;4980816;28;20822;-87
2023/04/24 11:24:25;;;;;;;9.47;5.10;;;15.20;99.90;;;;;;4994266;28;21007;-88
2023/04/24 11:26:58;;;;;;;13.23;4.50;;;14.80;99.90;;;;;;4990043;28;20443;-87
2023/04/24 11:29:56;;;;;;;13.80;4.80;;;14.60;99.90;;;;;;4999992;28;20525;-86
2023/04/24 11:32:34;;;;;;;11.97;5.50;;;14.20;99.90;;;;;;4998591;28;20546;-87
2023/04/24 11:35:08;;;;;;;13.23;4.87;;;13.80;99.90;;;;;;4977954;28;20501;-87
2023/04/24 11:37:38;;;;;;;13.33;5.00;;;13.50;99.90;;;;;;4979914;28;20862;-87
2023/04/24 11:40:06;;;;;;;13.50;5.20;;;13.30;99.90;;;;;;5005249;28;20503;-87
2023/04/24 11:42:40;;;;;;;8.37;6.00;;;13.10;99.90;;;;;;4989612;28;20500;-86
2023/04/24 11:45:13;;;;;;;10.83;6.17;;;12.90;99.90;;;;;;5005285;28;20470;-87
2023/04/24 11:47:40;;;;;;;10.47;4.87;;;12.80;1.00;;;;;;4977183;28;20466;-86
2023/04/24 11:50:08;;;;;;;12.60;5.00;;;12.80;1.00;;;;;;4984313;28;20873;-87
2023/04/24 11:52:37;;;;;;;6.97;3.50;;;13.00;1.00;;;;;;4981918;28;20484;-87
2023/04/24 11:55:03;;;;;;;5.33;3.00;;;13.20;99.90;;;;;;5006543;28;20431;-86
2023/04/24 11:57:33;;;;;;;9.03;4.03;;;13.80;99.90;;;;;;5011255;28;20440;-87
2023/04/24 12:00:00;;;;;;;8.23;4.40;;;14.40;99.90;;;;;;4992446;28;20440;-86
2023/04/24 12:02:27;;;;;;;5.57;3.60;;;15.00;99.90;;;;;;4997911;28;20434;-87
2023/04/24 12:04:54;;;;;;;8.37;3.33;;;15.40;99.90;;;;;;4994670;28;20481;-87
2023/04/24 12:07:24;;;;;;;9.63;3.90;;;15.40;99.90;;;;;;4981496;28;20454;-89
2023/04/24 12:09:57;;;;;;;8.37;3.70;;;15.30;99.90;;;;;;4985836;28;20533;-87
2023/04/24 12:12:28;;;;;;;9.33;4.43;;;15.30;99.90;;;;;;4982135;28;20445;-87
2023/04/24 12:14:56;;;;;;;10.13;3.83;;;15.60;99.90;;;;;;4999213;28;20839;-88
2023/04/24 12:17:30;;;;;;;9.60;4.10;;;16.60;99.90;;;;;;5005118;28;21139;-86
2023/04/24 12:20:04;;;;;;;9.80;4.90;;;18.20;99.90;;;;;;5016767;28;20437;-87
2023/04/24 12:22:51;;;;;;;11.23;3.90;;;18.90;99.90;;;;;;5014846;28;20449;-86
2023/04/24 12:25:19;;;;;;;9.67;3.50;;;19.20;99.90;;;;;;4984142;28;20499;-87
2023/04/24 12:27:46;;;;;;;7.00;3.40;;;18.80;99.90;;;;;;4987723;28;20453;-88
2023/04/24 12:30:15;;;;;;;8.27;3.37;;;18.50;99.90;;;;;;4992301;28;20465;-87
2023/04/24 12:32:46;;;;;;;9.53;4.10;;;18.00;99.90;;;;;;5003103;28;20439;-87
2023/04/24 12:35:12;;;;;;;9.60;3.53;;;17.60;99.90;;;;;;5014170;28;20434;-87
2023/04/24 12:37:39;;;;;;;7.30;3.80;;;17.20;99.90;;;;;;5005945;28;20527;-87
2023/04/24 12:40:12;;;;;;;5.40;3.20;;;16.70;99.90;;;;;;4999259;28;20430;-86
2023/04/24 12:42:49;;;;;;;8.40;4.20;;;16.30;99.90;;;;;;5007683;28;20464;-86
2023/04/24 12:45:16;;;;;;;9.20;3.37;;;15.80;99.90;;;;;;4999396;28;20470;-87
2023/04/24 12:47:43;;;;;;;4.20;3.13;;;16.10;99.90;;;;;;5010798;28;20823;-87
2023/04/24 12:50:10;;;;;;;6.77;3.47;;;16.80;99.90;;;;;;5016370;28;20426;-87